sensor_id;sensor_type;location;lat;lon;timestamp;P1;durP1;ratioP1;P2;durP2;ratioP2
54937;SDS011;52756;52.826;6.214;2022-12-18T00:01:22;69.23;;;31.07;;
54937;SDS011;52756;52.826;6.214;2022-12-18T00:06:19;65.93;;;28.90;;
54937;SDS011;52756;52.826;6.214;2022-12-18T00:08:45;73.07;;;31.57;;
54937;SDS011;52756;52.826;6.214;2022-12-18T00:11:16;63.67;;;30.27;;
54937;SDS011;52756;52.826;6.214;2022-12-18T00:13:43;71.90;;;31.50;;
54937;SDS011;52756;52.826;6.214;2022-12-18T00:16:14;69.27;;;31.33;;
54937;SDS011;52756;52.826;6.214;2022-12-18T00:18:43;61.33;;;29.63;;
54937;SDS011;52756;52.826;6.214;2022-12-18T00:21:10;61.63;;;30.30;;
54937;SDS011;52756;52.826;6.214;2022-12-18T00:23:37;65.07;;;30.10;;
54937;SDS011;52756;52.826;6.214;2022-12-18T00:26:04;70.73;;;31.53;;
54937;SDS011;52756;52.826;6.214;2022-12-18T00:28:32;65.37;;;30.03;;
54937;SDS011;52756;52.826;6.214;2022-12-18T00:31:08;62.83;;;30.33;;
54937;SDS011;52756;52.826;6.214;2022-12-18T00:33:45;64.30;;;29.30;;
54937;SDS011;52756;52.826;6.214;2022-12-18T00:36:20;55.30;;;27.37;;
54937;SDS011;52756;52.826;6.214;2022-12-18T00:38:48;64.23;;;30.53;;
54937;SDS011;52756;52.826;6.214;2022-12-18T00:41:14;62.10;;;27.53;;
54937;SDS011;52756;52.826;6.214;2022-12-18T00:43:59;66.03;;;31.70;;
54937;SDS011;52756;52.826;6.214;2022-12-18T00:46:25;67.90;;;29.60;;
54937;SDS011;52756;52.826;6.214;2022-12-18T00:48:51;61.80;;;28.23;;
54937;SDS011;52756;52.826;6.214;2022-12-18T00:51:17;55.87;;;28.33;;
54937;SDS011;52756;52.826;6.214;2022-12-18T00:53:42;61.23;;;29.00;;
54937;SDS011;52756;52.826;6.214;2022-12-18T00:56:08;60.27;;;28.33;;
54937;SDS011;52756;52.826;6.214;2022-12-18T00:58:33;63.57;;;30.63;;
54937;SDS011;52756;52.826;6.214;2022-12-18T01:00:59;62.27;;;28.37;;
54937;SDS011;52756;52.826;6.214;2022-12-18T01:03:25;62.63;;;29.37;;
54937;SDS011;52756;52.826;6.214;2022-12-18T01:05:50;68.13;;;30.60;;
54937;SDS011;52756;52.826;6.214;2022-12-18T01:08:16;66.33;;;31.90;;
54937;SDS011;52756;52.826;6.214;2022-12-18T01:10:42;64.37;;;31.80;;
54937;SDS011;52756;52.826;6.214;2022-12-18T01:13:08;63.80;;;29.23;;
54937;SDS011;52756;52.826;6.214;2022-12-18T01:15:33;66.03;;;29.60;;
54937;SDS011;52756;52.826;6.214;2022-12-18T01:17:59;61.57;;;30.27;;
54937;SDS011;52756;52.826;6.214;2022-12-18T01:20:25;66.97;;;31.57;;
54937;SDS011;52756;52.826;6.214;2022-12-18T01:22:50;68.50;;;31.40;;
54937;SDS011;52756;52.826;6.214;2022-12-18T01:25:16;65.47;;;29.67;;
54937;SDS011;52756;52.826;6.214;2022-12-18T01:27:42;65.23;;;30.93;;
54937;SDS011;52756;52.826;6.214;2022-12-18T01:30:08;68.53;;;31.33;;
54937;SDS011;52756;52.826;6.214;2022-12-18T01:32:34;60.60;;;28.90;;
54937;SDS011;52756;52.826;6.214;2022-12-18T01:34:59;61.53;;;30.80;;
54937;SDS011;52756;52.826;6.214;2022-12-18T01:37:25;61.57;;;29.17;;
54937;SDS011;52756;52.826;6.214;2022-12-18T01:39:52;64.23;;;30.07;;
54937;SDS011;52756;52.826;6.214;2022-12-18T01:42:19;62.87;;;30.33;;
54937;SDS011;52756;52.826;6.214;2022-12-18T01:49:52;62.73;;;31.73;;
54937;SDS011;52756;52.826;6.214;2022-12-18T01:52:19;64.77;;;32.00;;
54937;SDS011;52756;52.826;6.214;2022-12-18T01:54:46;58.00;;;27.87;;
54937;SDS011;52756;52.826;6.214;2022-12-18T01:57:13;76.83;;;35.43;;
54937;SDS011;52756;52.826;6.214;2022-12-18T01:59:40;78.40;;;36.70;;
54937;SDS011;52756;52.826;6.214;2022-12-18T02:02:09;66.27;;;32.90;;
54937;SDS011;52756;52.826;6.214;2022-12-18T02:04:34;72.40;;;36.10;;
54937;SDS011;52756;52.826;6.214;2022-12-18T02:12:52;74.23;;;35.40;;
54937;SDS011;52756;52.826;6.214;2022-12-18T02:15:40;77.57;;;36.87;;
54937;SDS011;52756;52.826;6.214;2022-12-18T02:18:33;71.37;;;31.83;;
54937;SDS011;52756;52.826;6.214;2022-12-18T02:27:03;71.77;;;32.57;;
54937;SDS011;52756;52.826;6.214;2022-12-18T02:32:04;66.47;;;30.00;;
54937;SDS011;52756;52.826;6.214;2022-12-18T02:34:35;70.73;;;32.90;;
54937;SDS011;52756;52.826;6.214;2022-12-18T02:37:04;68.23;;;31.53;;
54937;SDS011;52756;52.826;6.214;2022-12-18T02:39:36;70.77;;;33.73;;
54937;SDS011;52756;52.826;6.214;2022-12-18T02:42:03;64.70;;;30.17;;
54937;SDS011;52756;52.826;6.214;2022-12-18T02:44:33;68.33;;;31.90;;
54937;SDS011;52756;52.826;6.214;2022-12-18T02:47:00;62.70;;;29.20;;
54937;SDS011;52756;52.826;6.214;2022-12-18T02:56:55;63.53;;;28.13;;
54937;SDS011;52756;52.826;6.214;2022-12-18T02:59:30;62.27;;;29.73;;
54937;SDS011;52756;52.826;6.214;2022-12-18T03:02:19;56.03;;;27.20;;
54937;SDS011;52756;52.826;6.214;2022-12-18T03:07:41;59.93;;;27.30;;
54937;SDS011;52756;52.826;6.214;2022-12-18T03:10:13;57.07;;;28.80;;
54937;SDS011;52756;52.826;6.214;2022-12-18T03:12:43;51.97;;;26.77;;
54937;SDS011;52756;52.826;6.214;2022-12-18T03:15:19;57.88;;;29.23;;
54937;SDS011;52756;52.826;6.214;2022-12-18T03:17:52;56.40;;;26.07;;
54937;SDS011;52756;52.826;6.214;2022-12-18T03:20:24;58.97;;;27.23;;
54937;SDS011;52756;52.826;6.214;2022-12-18T03:22:55;51.60;;;27.47;;
54937;SDS011;52756;52.826;6.214;2022-12-18T03:25:27;55.63;;;26.73;;
54937;SDS011;52756;52.826;6.214;2022-12-18T03:27:55;52.77;;;25.83;;
54937;SDS011;52756;52.826;6.214;2022-12-18T03:30:24;54.03;;;25.70;;
54937;SDS011;52756;52.826;6.214;2022-12-18T03:32:56;49.70;;;25.30;;
54937;SDS011;52756;52.826;6.214;2022-12-18T03:35:26;52.70;;;25.07;;
54937;SDS011;52756;52.826;6.214;2022-12-18T03:37:56;49.30;;;25.27;;
54937;SDS011;52756;52.826;6.214;2022-12-18T03:40:24;47.83;;;26.43;;
54937;SDS011;52756;52.826;6.214;2022-12-18T03:42:59;47.17;;;24.67;;
54937;SDS011;52756;52.826;6.214;2022-12-18T03:45:37;50.90;;;24.27;;
54937;SDS011;52756;52.826;6.214;2022-12-18T03:48:17;49.07;;;23.93;;
54937;SDS011;52756;52.826;6.214;2022-12-18T03:50:53;51.20;;;25.30;;
54937;SDS011;52756;52.826;6.214;2022-12-18T03:53:31;50.73;;;24.23;;
54937;SDS011;52756;52.826;6.214;2022-12-18T03:56:03;55.40;;;25.20;;
54937;SDS011;52756;52.826;6.214;2022-12-18T03:58:31;52.67;;;26.43;;
54937;SDS011;52756;52.826;6.214;2022-12-18T04:01:00;48.93;;;24.63;;
54937;SDS011;52756;52.826;6.214;2022-12-18T04:03:28;48.43;;;23.80;;
54937;SDS011;52756;52.826;6.214;2022-12-18T04:05:56;46.77;;;22.73;;
54937;SDS011;52756;52.826;6.214;2022-12-18T04:08:25;41.33;;;22.23;;
54937;SDS011;52756;52.826;6.214;2022-12-18T04:10:52;45.10;;;22.17;;
54937;SDS011;52756;52.826;6.214;2022-12-18T04:13:24;46.00;;;23.97;;
54937;SDS011;52756;52.826;6.214;2022-12-18T04:15:54;51.30;;;24.90;;
54937;SDS011;52756;52.826;6.214;2022-12-18T04:18:19;51.70;;;24.53;;
54937;SDS011;52756;52.826;6.214;2022-12-18T04:20:45;46.10;;;22.90;;
54937;SDS011;52756;52.826;6.214;2022-12-18T04:23:11;46.77;;;24.37;;
54937;SDS011;52756;52.826;6.214;2022-12-18T04:25:36;52.73;;;24.80;;
54937;SDS011;52756;52.826;6.214;2022-12-18T04:28:02;49.70;;;22.53;;
54937;SDS011;52756;52.826;6.214;2022-12-18T04:30:28;50.87;;;24.80;;
54937;SDS011;52756;52.826;6.214;2022-12-18T04:32:54;46.87;;;23.60;;
54937;SDS011;52756;52.826;6.214;2022-12-18T04:35:19;50.43;;;25.00;;
54937;SDS011;52756;52.826;6.214;2022-12-18T04:37:45;54.80;;;24.63;;
54937;SDS011;52756;52.826;6.214;2022-12-18T04:40:11;44.60;;;22.30;;
54937;SDS011;52756;52.826;6.214;2022-12-18T04:42:37;52.20;;;24.90;;
54937;SDS011;52756;52.826;6.214;2022-12-18T04:45:04;48.90;;;23.20;;
54937;SDS011;52756;52.826;6.214;2022-12-18T04:47:30;50.07;;;23.70;;
54937;SDS011;52756;52.826;6.214;2022-12-18T04:49:56;43.63;;;21.73;;
54937;SDS011;52756;52.826;6.214;2022-12-18T04:52:22;45.40;;;22.10;;
54937;SDS011;52756;52.826;6.214;2022-12-18T04:54:47;52.20;;;22.70;;
54937;SDS011;52756;52.826;6.214;2022-12-18T04:57:13;45.67;;;22.83;;
54937;SDS011;52756;52.826;6.214;2022-12-18T04:59:39;45.73;;;22.80;;
54937;SDS011;52756;52.826;6.214;2022-12-18T05:02:04;49.57;;;22.70;;
54937;SDS011;52756;52.826;6.214;2022-12-18T05:04:30;48.97;;;23.43;;
54937;SDS011;52756;52.826;6.214;2022-12-18T05:06:56;45.47;;;21.00;;
54937;SDS011;52756;52.826;6.214;2022-12-18T05:09:22;46.97;;;21.87;;
54937;SDS011;52756;52.826;6.214;2022-12-18T05:11:48;45.53;;;22.23;;
54937;SDS011;52756;52.826;6.214;2022-12-18T05:14:14;51.37;;;23.07;;
54937;SDS011;52756;52.826;6.214;2022-12-18T05:16:39;44.10;;;21.60;;
54937;SDS011;52756;52.826;6.214;2022-12-18T05:19:05;44.87;;;23.13;;
54937;SDS011;52756;52.826;6.214;2022-12-18T05:21:31;46.57;;;23.03;;
54937;SDS011;52756;52.826;6.214;2022-12-18T05:23:56;44.70;;;21.07;;
54937;SDS011;52756;52.826;6.214;2022-12-18T05:26:22;48.20;;;21.40;;
54937;SDS011;52756;52.826;6.214;2022-12-18T05:28:48;48.63;;;23.43;;
54937;SDS011;52756;52.826;6.214;2022-12-18T05:31:13;50.33;;;23.43;;
54937;SDS011;52756;52.826;6.214;2022-12-18T05:33:39;43.40;;;21.87;;
54937;SDS011;52756;52.826;6.214;2022-12-18T05:36:06;45.77;;;21.10;;
54937;SDS011;52756;52.826;6.214;2022-12-18T05:38:33;43.03;;;21.70;;
54937;SDS011;52756;52.826;6.214;2022-12-18T05:41:01;44.77;;;21.13;;
54937;SDS011;52756;52.826;6.214;2022-12-18T05:43:27;44.83;;;22.57;;
54937;SDS011;52756;52.826;6.214;2022-12-18T05:45:54;45.80;;;21.30;;
54937;SDS011;52756;52.826;6.214;2022-12-18T05:48:20;45.67;;;20.97;;
54937;SDS011;52756;52.826;6.214;2022-12-18T05:50:47;45.17;;;21.50;;
54937;SDS011;52756;52.826;6.214;2022-12-18T05:53:14;42.00;;;19.60;;
54937;SDS011;52756;52.826;6.214;2022-12-18T05:55:41;44.63;;;21.23;;
54937;SDS011;52756;52.826;6.214;2022-12-18T05:58:08;43.57;;;21.30;;
54937;SDS011;52756;52.826;6.214;2022-12-18T06:00:35;45.53;;;22.40;;
54937;SDS011;52756;52.826;6.214;2022-12-18T06:03:05;51.77;;;22.47;;
54937;SDS011;52756;52.826;6.214;2022-12-18T06:05:35;42.97;;;21.57;;
54937;SDS011;52756;52.826;6.214;2022-12-18T06:08:02;49.07;;;22.77;;
54937;SDS011;52756;52.826;6.214;2022-12-18T06:10:28;43.50;;;21.00;;
54937;SDS011;52756;52.826;6.214;2022-12-18T06:12:54;46.80;;;21.10;;
54937;SDS011;52756;52.826;6.214;2022-12-18T06:15:19;46.60;;;22.90;;
54937;SDS011;52756;52.826;6.214;2022-12-18T06:17:45;42.00;;;20.83;;
54937;SDS011;52756;52.826;6.214;2022-12-18T06:20:11;45.10;;;20.40;;
54937;SDS011;52756;52.826;6.214;2022-12-18T06:22:36;45.97;;;21.20;;
54937;SDS011;52756;52.826;6.214;2022-12-18T06:25:02;48.47;;;22.67;;
54937;SDS011;52756;52.826;6.214;2022-12-18T06:27:28;42.50;;;20.93;;
54937;SDS011;52756;52.826;6.214;2022-12-18T06:29:54;47.13;;;21.57;;
54937;SDS011;52756;52.826;6.214;2022-12-18T06:32:19;53.47;;;22.90;;
54937;SDS011;52756;52.826;6.214;2022-12-18T06:34:45;52.43;;;24.80;;
54937;SDS011;52756;52.826;6.214;2022-12-18T06:37:11;50.43;;;21.77;;
54937;SDS011;52756;52.826;6.214;2022-12-18T06:39:36;46.63;;;22.10;;
54937;SDS011;52756;52.826;6.214;2022-12-18T06:42:02;47.20;;;21.00;;
54937;SDS011;52756;52.826;6.214;2022-12-18T06:44:28;42.03;;;20.07;;
54937;SDS011;52756;52.826;6.214;2022-12-18T06:46:54;44.67;;;21.20;;
54937;SDS011;52756;52.826;6.214;2022-12-18T06:49:20;42.87;;;22.00;;
54937;SDS011;52756;52.826;6.214;2022-12-18T06:51:45;48.23;;;20.80;;
54937;SDS011;52756;52.826;6.214;2022-12-18T06:54:12;39.60;;;19.27;;
54937;SDS011;52756;52.826;6.214;2022-12-18T06:56:37;43.43;;;20.83;;
54937;SDS011;52756;52.826;6.214;2022-12-18T06:59:03;41.70;;;21.00;;
54937;SDS011;52756;52.826;6.214;2022-12-18T07:01:29;40.13;;;18.70;;
54937;SDS011;52756;52.826;6.214;2022-12-18T07:03:55;45.10;;;20.43;;
54937;SDS011;52756;52.826;6.214;2022-12-18T07:06:22;44.57;;;19.77;;
54937;SDS011;52756;52.826;6.214;2022-12-18T07:08:50;39.30;;;20.13;;
54937;SDS011;52756;52.826;6.214;2022-12-18T07:11:17;44.70;;;21.27;;
54937;SDS011;52756;52.826;6.214;2022-12-18T07:13:43;36.63;;;19.27;;
54937;SDS011;52756;52.826;6.214;2022-12-18T07:16:11;40.47;;;18.50;;
54937;SDS011;52756;52.826;6.214;2022-12-18T07:18:41;41.60;;;19.30;;
54937;SDS011;52756;52.826;6.214;2022-12-18T07:21:10;33.33;;;17.53;;
54937;SDS011;52756;52.826;6.214;2022-12-18T07:23:38;40.33;;;19.37;;
54937;SDS011;52756;52.826;6.214;2022-12-18T07:26:04;38.30;;;20.00;;
54937;SDS011;52756;52.826;6.214;2022-12-18T07:28:35;36.43;;;18.83;;
54937;SDS011;52756;52.826;6.214;2022-12-18T07:31:02;39.83;;;18.20;;
54937;SDS011;52756;52.826;6.214;2022-12-18T07:33:39;36.97;;;17.97;;
54937;SDS011;52756;52.826;6.214;2022-12-18T07:36:06;40.03;;;20.17;;
54937;SDS011;52756;52.826;6.214;2022-12-18T07:38:33;34.67;;;17.60;;
54937;SDS011;52756;52.826;6.214;2022-12-18T07:41:03;46.90;;;20.57;;
54937;SDS011;52756;52.826;6.214;2022-12-18T07:43:39;36.50;;;20.13;;
54937;SDS011;52756;52.826;6.214;2022-12-18T07:46:06;38.30;;;18.87;;
54937;SDS011;52756;52.826;6.214;2022-12-18T07:48:33;35.63;;;18.17;;
54937;SDS011;52756;52.826;6.214;2022-12-18T07:50:59;34.93;;;17.87;;
54937;SDS011;52756;52.826;6.214;2022-12-18T07:53:26;38.20;;;20.20;;
54937;SDS011;52756;52.826;6.214;2022-12-18T07:55:56;37.07;;;18.60;;
54937;SDS011;52756;52.826;6.214;2022-12-18T07:58:22;40.03;;;18.93;;
54937;SDS011;52756;52.826;6.214;2022-12-18T08:00:48;35.27;;;17.83;;
54937;SDS011;52756;52.826;6.214;2022-12-18T08:03:13;36.03;;;18.20;;
54937;SDS011;52756;52.826;6.214;2022-12-18T08:05:39;38.33;;;18.97;;
54937;SDS011;52756;52.826;6.214;2022-12-18T08:08:05;36.90;;;17.67;;
54937;SDS011;52756;52.826;6.214;2022-12-18T08:10:30;36.63;;;18.40;;
54937;SDS011;52756;52.826;6.214;2022-12-18T08:12:56;31.60;;;16.63;;
54937;SDS011;52756;52.826;6.214;2022-12-18T08:15:22;31.83;;;17.80;;
54937;SDS011;52756;52.826;6.214;2022-12-18T08:17:47;33.33;;;17.47;;
54937;SDS011;52756;52.826;6.214;2022-12-18T08:20:13;33.73;;;18.57;;
54937;SDS011;52756;52.826;6.214;2022-12-18T08:22:40;30.70;;;17.00;;
54937;SDS011;52756;52.826;6.214;2022-12-18T08:25:09;34.03;;;16.73;;
54937;SDS011;52756;52.826;6.214;2022-12-18T08:27:35;30.30;;;15.33;;
54937;SDS011;52756;52.826;6.214;2022-12-18T08:30:01;32.63;;;16.20;;
54937;SDS011;52756;52.826;6.214;2022-12-18T08:32:28;32.63;;;17.77;;
54937;SDS011;52756;52.826;6.214;2022-12-18T08:34:54;31.97;;;17.83;;
54937;SDS011;52756;52.826;6.214;2022-12-18T08:37:20;29.20;;;15.63;;
54937;SDS011;52756;52.826;6.214;2022-12-18T08:39:45;32.87;;;16.70;;
54937;SDS011;52756;52.826;6.214;2022-12-18T08:42:11;31.57;;;16.10;;
54937;SDS011;52756;52.826;6.214;2022-12-18T08:44:55;30.52;;;16.80;;
54937;SDS011;52756;52.826;6.214;2022-12-18T08:47:21;29.13;;;16.00;;
54937;SDS011;52756;52.826;6.214;2022-12-18T08:49:46;29.57;;;15.23;;
54937;SDS011;52756;52.826;6.214;2022-12-18T08:52:12;30.30;;;15.87;;
54937;SDS011;52756;52.826;6.214;2022-12-18T08:54:38;29.53;;;14.80;;
54937;SDS011;52756;52.826;6.214;2022-12-18T08:57:03;28.87;;;15.63;;
54937;SDS011;52756;52.826;6.214;2022-12-18T08:59:29;28.33;;;16.67;;
54937;SDS011;52756;52.826;6.214;2022-12-18T09:01:54;26.17;;;15.47;;
54937;SDS011;52756;52.826;6.214;2022-12-18T09:04:20;24.83;;;14.17;;
54937;SDS011;52756;52.826;6.214;2022-12-18T09:06:46;26.40;;;15.40;;
54937;SDS011;52756;52.826;6.214;2022-12-18T09:09:12;25.87;;;16.17;;
54937;SDS011;52756;52.826;6.214;2022-12-18T09:11:38;30.20;;;14.97;;
54937;SDS011;52756;52.826;6.214;2022-12-18T09:14:04;25.70;;;14.70;;
54937;SDS011;52756;52.826;6.214;2022-12-18T09:16:29;26.90;;;14.87;;
54937;SDS011;52756;52.826;6.214;2022-12-18T09:18:57;27.43;;;15.73;;
54937;SDS011;52756;52.826;6.214;2022-12-18T09:21:27;25.03;;;14.27;;
54937;SDS011;52756;52.826;6.214;2022-12-18T09:23:55;27.87;;;17.10;;
54937;SDS011;52756;52.826;6.214;2022-12-18T09:26:22;25.67;;;15.10;;
54937;SDS011;52756;52.826;6.214;2022-12-18T09:28:49;25.20;;;14.87;;
54937;SDS011;52756;52.826;6.214;2022-12-18T09:31:15;22.67;;;14.03;;
54937;SDS011;52756;52.826;6.214;2022-12-18T09:33:43;24.40;;;14.33;;
54937;SDS011;52756;52.826;6.214;2022-12-18T09:36:11;25.30;;;15.07;;
54937;SDS011;52756;52.826;6.214;2022-12-18T09:38:38;23.70;;;14.73;;
54937;SDS011;52756;52.826;6.214;2022-12-18T09:44:10;20.23;;;13.33;;
54937;SDS011;52756;52.826;6.214;2022-12-18T09:46:45;24.20;;;13.23;;
54937;SDS011;52756;52.826;6.214;2022-12-18T09:49:18;22.15;;;12.98;;
54937;SDS011;52756;52.826;6.214;2022-12-18T09:51:52;22.37;;;13.63;;
54937;SDS011;52756;52.826;6.214;2022-12-18T09:54:23;22.95;;;13.95;;
54937;SDS011;52756;52.826;6.214;2022-12-18T09:57:06;20.87;;;12.03;;
54937;SDS011;52756;52.826;6.214;2022-12-18T09:59:36;19.70;;;10.63;;
54937;SDS011;52756;52.826;6.214;2022-12-18T10:02:38;20.63;;;11.27;;
54937;SDS011;52756;52.826;6.214;2022-12-18T10:05:05;17.63;;;10.90;;
54937;SDS011;52756;52.826;6.214;2022-12-18T10:07:55;18.53;;;11.47;;
54937;SDS011;52756;52.826;6.214;2022-12-18T10:13:27;18.33;;;10.33;;
54937;SDS011;52756;52.826;6.214;2022-12-18T10:16:16;16.10;;;8.47;;
54937;SDS011;52756;52.826;6.214;2022-12-18T10:21:48;17.00;;;9.00;;
54937;SDS011;52756;52.826;6.214;2022-12-18T10:24:38;19.70;;;10.37;;
54937;SDS011;52756;52.826;6.214;2022-12-18T10:27:17;16.20;;;9.57;;
54937;SDS011;52756;52.826;6.214;2022-12-18T10:29:47;14.20;;;8.93;;
54937;SDS011;52756;52.826;6.214;2022-12-18T10:32:21;15.27;;;9.77;;
54937;SDS011;52756;52.826;6.214;2022-12-18T10:34:53;16.63;;;10.80;;
54937;SDS011;52756;52.826;6.214;2022-12-18T10:37:23;16.40;;;9.20;;
54937;SDS011;52756;52.826;6.214;2022-12-18T10:40:08;15.83;;;8.93;;
54937;SDS011;52756;52.826;6.214;2022-12-18T10:42:41;15.30;;;9.10;;
54937;SDS011;52756;52.826;6.214;2022-12-18T10:45:13;16.27;;;9.17;;
54937;SDS011;52756;52.826;6.214;2022-12-18T10:47:44;17.83;;;9.00;;
54937;SDS011;52756;52.826;6.214;2022-12-18T10:50:32;14.80;;;8.83;;
54937;SDS011;52756;52.826;6.214;2022-12-18T10:53:02;15.40;;;9.83;;
54937;SDS011;52756;52.826;6.214;2022-12-18T10:55:31;14.13;;;9.53;;
54937;SDS011;52756;52.826;6.214;2022-12-18T11:01:11;12.83;;;8.70;;
54937;SDS011;52756;52.826;6.214;2022-12-18T11:03:46;13.83;;;7.80;;
54937;SDS011;52756;52.826;6.214;2022-12-18T11:06:24;12.23;;;8.40;;
54937;SDS011;52756;52.826;6.214;2022-12-18T11:09:00;12.90;;;7.00;;
54937;SDS011;52756;52.826;6.214;2022-12-18T11:11:31;14.00;;;8.20;;
54937;SDS011;52756;52.826;6.214;2022-12-18T11:14:04;14.23;;;8.40;;
54937;SDS011;52756;52.826;6.214;2022-12-18T11:16:42;16.00;;;8.57;;
54937;SDS011;52756;52.826;6.214;2022-12-18T11:21:45;14.97;;;9.40;;
54937;SDS011;52756;52.826;6.214;2022-12-18T11:24:17;14.43;;;8.93;;
54937;SDS011;52756;52.826;6.214;2022-12-18T11:26:51;14.77;;;9.00;;
54937;SDS011;52756;52.826;6.214;2022-12-18T11:29:18;14.53;;;8.80;;
54937;SDS011;52756;52.826;6.214;2022-12-18T11:31:49;11.33;;;7.53;;
54937;SDS011;52756;52.826;6.214;2022-12-18T11:34:23;14.27;;;8.87;;
54937;SDS011;52756;52.826;6.214;2022-12-18T11:36:54;14.47;;;8.53;;
54937;SDS011;52756;52.826;6.214;2022-12-18T11:39:30;15.03;;;8.90;;
54937;SDS011;52756;52.826;6.214;2022-12-18T11:42:03;13.17;;;7.87;;
54937;SDS011;52756;52.826;6.214;2022-12-18T11:44:48;11.87;;;7.23;;
54937;SDS011;52756;52.826;6.214;2022-12-18T11:52:51;12.20;;;7.13;;
54937;SDS011;52756;52.826;6.214;2022-12-18T11:55:37;11.43;;;7.37;;
54937;SDS011;52756;52.826;6.214;2022-12-18T12:00:53;13.10;;;7.73;;
54937;SDS011;52756;52.826;6.214;2022-12-18T12:06:21;13.67;;;7.70;;
54937;SDS011;52756;52.826;6.214;2022-12-18T12:11:53;12.57;;;7.87;;
54937;SDS011;52756;52.826;6.214;2022-12-18T12:17:36;13.67;;;7.53;;
54937;SDS011;52756;52.826;6.214;2022-12-18T12:20:20;13.75;;;7.22;;
54937;SDS011;52756;52.826;6.214;2022-12-18T12:25:40;11.43;;;7.70;;
54937;SDS011;52756;52.826;6.214;2022-12-18T12:33:36;12.03;;;7.43;;
54937;SDS011;52756;52.826;6.214;2022-12-18T12:36:21;12.13;;;7.57;;
54937;SDS011;52756;52.826;6.214;2022-12-18T12:38:58;10.97;;;7.30;;
54937;SDS011;52756;52.826;6.214;2022-12-18T12:41:27;10.67;;;6.60;;
54937;SDS011;52756;52.826;6.214;2022-12-18T12:44:20;9.93;;;6.33;;
54937;SDS011;52756;52.826;6.214;2022-12-18T12:46:50;11.47;;;6.87;;
54937;SDS011;52756;52.826;6.214;2022-12-18T12:49:20;11.23;;;6.93;;
54937;SDS011;52756;52.826;6.214;2022-12-18T12:51:53;9.63;;;6.33;;
54937;SDS011;52756;52.826;6.214;2022-12-18T12:54:48;11.00;;;5.70;;
54937;SDS011;52756;52.826;6.214;2022-12-18T12:57:16;9.33;;;6.50;;
54937;SDS011;52756;52.826;6.214;2022-12-18T12:59:49;10.10;;;6.63;;
54937;SDS011;52756;52.826;6.214;2022-12-18T13:02:22;11.37;;;6.77;;
54937;SDS011;52756;52.826;6.214;2022-12-18T13:04:51;10.23;;;5.67;;
54937;SDS011;52756;52.826;6.214;2022-12-18T13:12:52;9.33;;;5.40;;
54937;SDS011;52756;52.826;6.214;2022-12-18T13:15:42;10.23;;;5.90;;
54937;SDS011;52756;52.826;6.214;2022-12-18T13:25:48;8.70;;;5.33;;
54937;SDS011;52756;52.826;6.214;2022-12-18T13:28:16;9.17;;;5.83;;
54937;SDS011;52756;52.826;6.214;2022-12-18T13:38:42;9.20;;;5.50;;
54937;SDS011;52756;52.826;6.214;2022-12-18T13:51:32;9.93;;;5.27;;
54937;SDS011;52756;52.826;6.214;2022-12-18T13:54:04;10.43;;;5.97;;
54937;SDS011;52756;52.826;6.214;2022-12-18T13:56:43;8.43;;;5.43;;
54937;SDS011;52756;52.826;6.214;2022-12-18T13:59:11;8.43;;;5.40;;
54937;SDS011;52756;52.826;6.214;2022-12-18T14:04:20;8.20;;;5.43;;
54937;SDS011;52756;52.826;6.214;2022-12-18T14:06:49;8.33;;;5.30;;
54937;SDS011;52756;52.826;6.214;2022-12-18T14:09:23;9.83;;;5.67;;
54937;SDS011;52756;52.826;6.214;2022-12-18T14:11:51;8.63;;;4.90;;
54937;SDS011;52756;52.826;6.214;2022-12-18T14:14:38;8.03;;;4.90;;
54937;SDS011;52756;52.826;6.214;2022-12-18T14:17:10;9.03;;;5.17;;
54937;SDS011;52756;52.826;6.214;2022-12-18T14:19:36;9.67;;;5.60;;
54937;SDS011;52756;52.826;6.214;2022-12-18T14:22:11;9.03;;;5.83;;
54937;SDS011;52756;52.826;6.214;2022-12-18T14:24:45;8.90;;;5.57;;
54937;SDS011;52756;52.826;6.214;2022-12-18T14:27:12;7.07;;;4.70;;
54937;SDS011;52756;52.826;6.214;2022-12-18T14:29:58;9.53;;;4.53;;
54937;SDS011;52756;52.826;6.214;2022-12-18T14:32:24;6.87;;;4.60;;
54937;SDS011;52756;52.826;6.214;2022-12-18T14:34:50;8.53;;;4.87;;
54937;SDS011;52756;52.826;6.214;2022-12-18T14:37:23;8.03;;;4.47;;
54937;SDS011;52756;52.826;6.214;2022-12-18T14:39:57;7.53;;;4.97;;
54937;SDS011;52756;52.826;6.214;2022-12-18T14:42:27;9.00;;;5.30;;
54937;SDS011;52756;52.826;6.214;2022-12-18T14:48:46;8.70;;;5.50;;
54937;SDS011;52756;52.826;6.214;2022-12-18T14:51:06;8.83;;;4.67;;
54937;SDS011;52756;52.826;6.214;2022-12-18T14:53:45;7.73;;;4.63;;
54937;SDS011;52756;52.826;6.214;2022-12-18T14:56:14;11.50;;;5.57;;
54937;SDS011;52756;52.826;6.214;2022-12-18T14:58:55;9.27;;;5.23;;
54937;SDS011;52756;52.826;6.214;2022-12-18T15:01:31;6.78;;;3.83;;
54937;SDS011;52756;52.826;6.214;2022-12-18T15:04:02;10.30;;;5.53;;
54937;SDS011;52756;52.826;6.214;2022-12-18T15:08:57;9.77;;;5.37;;
54937;SDS011;52756;52.826;6.214;2022-12-18T15:14:00;7.78;;;4.07;;
54937;SDS011;52756;52.826;6.214;2022-12-18T15:16:49;7.23;;;5.00;;
54937;SDS011;52756;52.826;6.214;2022-12-18T15:19:20;8.73;;;5.30;;
54937;SDS011;52756;52.826;6.214;2022-12-18T15:21:47;10.07;;;5.57;;
54937;SDS011;52756;52.826;6.214;2022-12-18T15:24:21;8.30;;;5.40;;
54937;SDS011;52756;52.826;6.214;2022-12-18T15:26:51;9.93;;;5.77;;
54937;SDS011;52756;52.826;6.214;2022-12-18T15:29:21;9.17;;;5.83;;
54937;SDS011;52756;52.826;6.214;2022-12-18T15:32:02;9.53;;;5.00;;
54937;SDS011;52756;52.826;6.214;2022-12-18T15:34:30;8.93;;;5.50;;
54937;SDS011;52756;52.826;6.214;2022-12-18T15:36:57;10.13;;;5.53;;
54937;SDS011;52756;52.826;6.214;2022-12-18T15:39:22;11.13;;;6.10;;
54937;SDS011;52756;52.826;6.214;2022-12-18T15:41:49;9.43;;;5.70;;
54937;SDS011;52756;52.826;6.214;2022-12-18T15:44:34;10.27;;;6.20;;
54937;SDS011;52756;52.826;6.214;2022-12-18T15:46:59;8.53;;;5.20;;
54937;SDS011;52756;52.826;6.214;2022-12-18T15:49:25;12.50;;;5.93;;
54937;SDS011;52756;52.826;6.214;2022-12-18T15:51:54;9.33;;;5.90;;
54937;SDS011;52756;52.826;6.214;2022-12-18T15:54:22;8.47;;;5.60;;
54937;SDS011;52756;52.826;6.214;2022-12-18T15:57:09;8.67;;;5.87;;
54937;SDS011;52756;52.826;6.214;2022-12-18T15:59:51;12.77;;;7.10;;
54937;SDS011;52756;52.826;6.214;2022-12-18T16:02:18;12.13;;;5.77;;
54937;SDS011;52756;52.826;6.214;2022-12-18T16:04:44;9.13;;;6.33;;
54937;SDS011;52756;52.826;6.214;2022-12-18T16:07:13;11.90;;;6.33;;
54937;SDS011;52756;52.826;6.214;2022-12-18T16:09:38;10.60;;;6.77;;
54937;SDS011;52756;52.826;6.214;2022-12-18T16:12:05;8.27;;;5.60;;
54937;SDS011;52756;52.826;6.214;2022-12-18T16:14:31;11.00;;;6.70;;
54937;SDS011;52756;52.826;6.214;2022-12-18T16:16:58;10.70;;;6.20;;
54937;SDS011;52756;52.826;6.214;2022-12-18T16:19:27;9.37;;;5.53;;
54937;SDS011;52756;52.826;6.214;2022-12-18T16:21:54;9.73;;;6.30;;
54937;SDS011;52756;52.826;6.214;2022-12-18T16:24:22;10.37;;;5.83;;
54937;SDS011;52756;52.826;6.214;2022-12-18T16:26:49;10.03;;;6.27;;
54937;SDS011;52756;52.826;6.214;2022-12-18T16:29:16;9.97;;;6.00;;
54937;SDS011;52756;52.826;6.214;2022-12-18T16:31:43;10.93;;;7.07;;
54937;SDS011;52756;52.826;6.214;2022-12-18T16:34:10;12.73;;;7.17;;
54937;SDS011;52756;52.826;6.214;2022-12-18T16:36:52;11.53;;;6.23;;
54937;SDS011;52756;52.826;6.214;2022-12-18T16:39:19;11.83;;;7.43;;